map of TOD home
Great Circle Mapper logo
TOD - Airport
Location
City:  Pulau Tioman, Malaysia
ICAO / IATA:WMBT / TOD

Details
Type:Airport (Aerodrome, Airfield)
Latitude:249'05"N (2.818183)
Longitude:10409'36"E (104.160019)
Datum:WGS 1984
Elevation:15 ft (5 m)
Runways:1
Longest:3255 × 100 ft (992 × 30.5 m), paved

Time
Time Zone:UTC+8
Local Time:

Weather
TAF:WMBT 241100Z 2412/2512 17008KT 9999 FEW017CB SCT140 BKN270
TEMPO 2412/2415 4000 TSRA FEW015CB SCT018
TEMPO 2507/2511 5000 TSRA FEW015CB SCT018

Related Locations
Nearby:
Farthest:SPAS: 12412 mi / 19976 km
Andoas [Alferez Vladimir Sara Bauer], PE

Find:

   beyond  
but within

Other Information
Maps:
NOTAMs:
Links:
Sources:

  
flag of Malaysia   

Sectional Chart

Flight Planning
at skyvector.com

Satellite Image

Google Maps Satellite View

 

Copyright © 2004-2014 Karl L. Swartz. All rights reserved.
The Great Circle Mapper name and logo are trademarks of the Great Circle Mapper.
All other trademarks mentioned herein belong to their respective owners.
Please see credits for attibutions and further copyright information.

  Follow gcmap on Facebook Follow gcmap on Twitter

hCard Microformat

Geo Microformat